• Join FlightAware (Why Join?)
  • Login
  • US Flag 
08:31AM EDT


 

Airport Tracker/Info


-or-


 

Live Flight TrackerFlight Track Log ✈ N4455M ✈ 09-Jul-2013 ✈ KBQK - KPDK

Flight Track Log - Related Links

Times and Time Zones

All times are in EDT time to prevent confusion due to time zone crossing. See the N4455M flight status page for this flight to view local times or setup timezone preferences in your user account.

Time Position Orientation Groundspeed Altitude Reporting Facility
EDT Latitude Longitude Course Direction KTS MPH feet Rate Location/Type
08:01AM 31.2983 -81.4703 317° Northwest 115 132 1,500  Level Jacksonville Center
08:02AM 31.3556 -81.5712 317° Northwest  Level FlightAware Approximate
08:02AM 31.3175 -81.4967 310° West 99 114 2,000  Level Jacksonville Center
08:03AM 31.3322 -81.5208 306° West 99 114 2,500 420 Climbing Jacksonville Center
08:04AM 31.3472 -81.5472 304° West 99 114 2,900 360 Climbing Jacksonville Center
08:05AM 31.3661 -81.5664 319° Northwest 93 107 3,300 360 Climbing Jacksonville Center
08:06AM 31.3853 -81.5881 316° Northwest 99 114 3,700 480 Climbing Jacksonville Center
08:07AM 31.4064 -81.6122 316° Northwest 99 114 4,300 540 Climbing Jacksonville Center
08:08AM 31.4275 -81.6339 319° Northwest 94 108 4,800 420 Climbing Jacksonville Center
08:09AM 31.4486 -81.6506 326° Northwest 94 108 5,200 360 Climbing Jacksonville Center
08:10AM 31.4694 -81.6697 322° Northwest 100 115 5,600 360 Climbing Jacksonville Center
08:11AM 31.4947 -81.6914 324° Northwest 100 115 6,000 180 Climbing Jacksonville Center
08:12AM 31.5181 -81.7203 313° West 118 136 6,000  Level Jacksonville Center
08:13AM 31.5456 -81.7469 320° Northwest 123 142 6,000  Level Jacksonville Center
08:14AM 31.5667 -81.7733 313° West 118 136 6,000 -60 Level Jacksonville Center
08:15AM 31.5939 -81.7950 326° Northwest 118 136 5,900  Descending Jacksonville Center
08:16AM 31.6214 -81.8214 321° Northwest 118 136 6,000  Climbing Jacksonville Center
08:17AM 31.6464 -81.8431 324° Northwest 112 129 6,000  Level Jacksonville Center
08:18AM 31.6739 -81.8625 329° Northwest 112 129 6,000  Level Jacksonville Center
08:19AM 31.6969 -81.8842 321° Northwest 112 129 6,100  Climbing Jacksonville Center
08:20AM 31.7222 -81.9058 324° Northwest 112 129 6,000  Descending Jacksonville Center
08:21AM 31.7494 -81.9300 323° Northwest 112 129 6,100  Climbing Jacksonville Center
08:22AM 31.7747 -81.9542 321° Northwest 112 129 6,100  Level Jacksonville Center
08:23AM 31.7958 -81.9833 310° West 117 135 6,100  Level Jacksonville Center
08:24AM 31.8147 -82.0100 310° West 117 135 6,100  Level Jacksonville Center
08:25AM 31.8381 -82.0392 313° West 117 135 6,100  Level Jacksonville Center
08:26AM 31.8653 -82.0706 316° Northwest 117 135 6,100 -60 Level Jacksonville Center
08:27AM 31.8883 -82.0972 316° Northwest 117 135 6,000 -60 Descending Jacksonville Center
08:28AM 31.9094 -82.1217 315° West 117 135 6,000  Level Jacksonville Center
08:29AM 31.9347 -82.1483 318° Northwest 117 135 6,000 -60 Level Jacksonville Center
08:30AM 31.9642 -82.1750 322° Northwest 117 135 5,900 -60 Descending Jacksonville Center
08:31AM 31.9872 -82.2019 315° West 117 135 5,900  Level Jacksonville Center
08:32AM 32.0061 -82.2311 307° West 117 135 5,900  Level Jacksonville Center
08:33AM 32.0272 -82.2556 316° Northwest 117 135 5,900  Level Jacksonville Center
08:34AM 32.0481 -82.2847 310° West 117 135 5,900  Level Jacksonville Center
08:35AM 32.0753 -82.3089 323° Northwest 112 129 6,000  Climbing Jacksonville Center
08:36AM 32.0964 -82.3408 308° West 119 137 5,900 -60 Descending Jacksonville Center
08:37AM 32.1258 -82.3653 325° Northwest 119 137 5,900  Level Jacksonville Center
08:38AM 32.1489 -82.3894 318° Northwest 119 137 5,900  Level Jacksonville Center
08:39AM 32.1697 -82.4189 310° West 119 137 5,900  Level Jacksonville Center
08:40AM 32.1908 -82.4433 316° Northwest 119 137 6,000  Climbing Jacksonville Center
08:41AM 32.2158 -82.4703 318° Northwest 119 137 5,900 -60 Descending Jacksonville Center
08:42AM 32.2411 -82.4947 321° Northwest 119 137 5,900  Level Jacksonville Center
08:43AM 32.2661 -82.5217 318° Northwest 119 137 5,900  Level Jacksonville Center
08:44AM 32.2914 -82.5461 321° Northwest 119 137 6,000  Climbing Jacksonville Center
08:45AM 32.3186 -82.5756 318° Northwest 119 137 5,900 -60 Descending Jacksonville Center
08:46AM 32.3436 -82.5975 323° Northwest 119 137 5,900  Level Jacksonville Center
08:49AM 32.4000 -82.6333 332° Northwest 120 138 5,900  Level Atlanta TRACON
08:49AM 32.4333 -82.6667 320° Northwest 118 136 5,900  Level Atlanta TRACON
08:50AM 32.4500 -82.7000 301° West 117 135 6,000  Climbing Atlanta TRACON
08:51AM 32.4833 -82.7167 337° Northwest 121 139 6,000  Level Atlanta TRACON
08:52AM 32.5000 -82.7500 301° West 117 135 6,000  Level Atlanta TRACON
08:53AM 32.5167 -82.7667 320° Northwest 119 137 6,000  Level Atlanta TRACON
08:54AM 32.5500 -82.8000 320° Northwest 118 136 6,000  Level Atlanta TRACON
08:55AM 32.5667 -82.8167 320° Northwest 118 136 6,000  Level Atlanta TRACON
08:56AM 32.5833 -82.8500 301° West 116 133 6,000  Level Atlanta TRACON
08:57AM 32.6167 -82.8667 337° Northwest 121 139 6,000 -60 Level Atlanta TRACON
08:58AM 32.6333 -82.9000 301° West 116 133 5,900 -60 Descending Atlanta TRACON
08:59AM 32.6667 -82.9333 320° Northwest 115 132 5,900  Level Atlanta TRACON
09:00AM 32.6833 -82.9500 320° Northwest 114 131 6,000  Climbing Atlanta TRACON
09:01AM 32.7000 -82.9833 301° West 116 133 6,000  Level Atlanta TRACON
09:02AM 32.7333 -83.0000 337° Northwest 117 135 6,100  Climbing Atlanta TRACON
09:03AM 32.7500 -83.0333 301° West 117 135 6,100  Level Atlanta TRACON
09:04AM 32.7667 -83.0500 320° Northwest 116 133 6,100  Level Atlanta TRACON
09:05AM 32.8000 -83.0667 337° Northwest 117 135 6,100  Level Atlanta TRACON
09:06AM 32.8167 -83.1000 301° West 117 135 6,200  Climbing Atlanta TRACON
09:07AM 32.8500 -83.1333 320° Northwest 118 136 6,100 -120 Descending Atlanta TRACON
09:08AM 32.8667 -83.1500 320° Northwest 120 138 6,000 -60 Descending Atlanta TRACON
09:09AM 32.8833 -83.1833 301° West 120 138 6,000 -60 Level Atlanta TRACON
09:10AM 32.9167 -83.2000 337° Northwest 120 138 5,900 -60 Descending Atlanta TRACON
09:11AM 32.9500 -83.2333 320° Northwest 123 142 5,900  Level Atlanta TRACON
09:12AM 32.9667 -83.2500 320° Northwest 121 139 5,900  Level Atlanta TRACON
09:13AM 33.0000 -83.2667 337° Northwest 117 135 5,900  Level Atlanta TRACON
09:14AM 33.0167 -83.3000 301° West 116 133 6,000  Climbing Atlanta TRACON
09:15AM 33.0500 -83.3167 337° Northwest 117 135 6,000  Level Atlanta TRACON
09:16AM 33.0667 -83.3500 301° West 118 136 6,000  Level Atlanta TRACON
09:17AM 33.1000 -83.3667 337° Northwest 118 136 6,000  Level Atlanta TRACON
09:18AM 33.1167 -83.4000 301° West 118 136 6,100  Climbing Atlanta TRACON
09:19AM 33.1500 -83.4167 337° Northwest 119 137 6,100  Level Atlanta TRACON
09:20AM 33.1833 -83.4500 320° Northwest 119 137 6,100  Level Atlanta TRACON
09:21AM 33.2000 -83.4667 320° Northwest 117 135 6,100  Level Atlanta TRACON
09:22AM 33.2167 -83.5000 301° West 119 137 6,100  Level Atlanta TRACON
09:23AM 33.2500 -83.5167 337° Northwest 116 133 6,100  Level Atlanta TRACON
09:24AM 33.2667 -83.5500 301° West 118 136 6,100  Level Atlanta TRACON
09:25AM 33.3000 -83.5667 337° Northwest 125 144 6,100  Level Atlanta TRACON
09:26AM 33.3167 -83.6000 301° West 120 138 6,100  Level Atlanta TRACON
09:27AM 33.3333 -83.6167 320° Northwest 119 137 6,100  Level Atlanta TRACON
09:28AM 33.3667 -83.6500 320° Northwest 117 135 6,100  Level Atlanta TRACON
09:29AM 33.4000 -83.6667 337° Northwest 124 143 6,100 -60 Level Atlanta TRACON
09:31AM 33.4667 -83.7000 337° Northwest 136 157 6,000 -180 Descending Atlanta TRACON
09:32AM 33.5000 -83.7000 360° North 132 152 5,700 -300 Descending Atlanta TRACON
09:33AM 33.5333 -83.7167 337° Northwest 135 155 5,500 -240 Descending Atlanta TRACON
09:34AM 33.5667 -83.7167 360° North 136 157 5,300 -240 Descending Atlanta TRACON
09:35AM 33.6000 -83.7333 337° Northwest 131 151 5,100 -240 Descending Atlanta TRACON
09:36AM 33.6500 -83.7333 360° North 127 146 4,900 -300 Descending Atlanta TRACON
09:37AM 33.6833 -83.7500 337° Northwest 125 144 4,600 -300 Descending Atlanta TRACON
09:38AM 33.7000 -83.7667 320° Northwest 119 137 4,400 -300 Descending Atlanta TRACON
09:39AM 33.7333 -83.7833 337° Northwest 123 142 4,100 -180 Descending Atlanta TRACON
09:40AM 33.7667 -83.8167 320° Northwest 118 136 4,100 -60 Level Atlanta TRACON
09:41AM 33.7833 -83.8333 320° Northwest 119 137 4,000 -60 Descending Atlanta TRACON
09:42AM 33.8167 -83.8500 337° Northwest 119 137 4,000  Level Atlanta TRACON
09:43AM 33.8333 -83.8833 301° West 111 128 4,100  Climbing Atlanta TRACON
09:44AM 33.8500 -83.9000 320° Northwest 106 122 4,100  Level Atlanta TRACON
09:45AM 33.8667 -83.9333 301° West 106 122 4,100  Level Atlanta TRACON
09:46AM 33.8833 -83.9667 301° West 105 121 4,100  Level Atlanta TRACON
09:47AM 33.9167 -83.9833 337° Northwest 110 127 4,100  Level Atlanta TRACON
09:48AM 33.9333 -84.0167 301° West 106 122 4,200  Climbing Atlanta TRACON
09:49AM 33.9500 -84.0500 301° West 110 127 4,200 -60 Level Atlanta TRACON
09:50AM 33.9667 -84.0833 301° West 109 125 4,100 -300 Descending Atlanta TRACON
09:51AM 33.9833 -84.1000 320° Northwest 117 135 3,700 -360 Descending Atlanta TRACON
09:52AM 34.0000 -84.1333 301° West 115 132 3,400 -300 Descending Atlanta TRACON
09:53AM 34.0000 -84.1667 270° West 111 128 3,200 -180 Descending Atlanta TRACON
09:54AM 34.0167 -84.2167 292° West 99 114 3,100 -60 Descending Atlanta TRACON
09:55AM 34.0000 -84.2333 220° Southwest 97 112 3,100 -60 Level Atlanta TRACON
09:56AM 33.9833 -84.2500 220° Southwest 100 115 3,000 -300 Descending Atlanta TRACON
09:57AM 33.9500 -84.2667 203° Southwest 96 110 2,600 -540 Descending Atlanta TRACON
09:58AM 33.9333 -84.2833 220° Southwest 97 112 2,000 -480 Descending Atlanta TRACON
09:59AM 33.9000 -84.2833 180° South 106 122 1,600 -420 Descending Atlanta TRACON
10:01AM 33.8667 -84.3000 203° Southwest  Level FlightAware Approximate
10:08AM 33.8756 -84.3020 203° Southwest  Level Estimated
10:09AM 33.8756 -84.3020 203° Southwest  Level Estimated